sensor_id;sensor_type;location;lat;lon;timestamp;P1;durP1;ratioP1;P2;durP2;ratioP2
55710;SDS011;41612;51.994;5.880;2023-03-13T00:03:53;31.95;;;6.15;;
55710;SDS011;41612;51.994;5.880;2023-03-13T00:06:20;31.40;;;6.38;;
55710;SDS011;41612;51.994;5.880;2023-03-13T00:08:49;17.98;;;5.32;;
55710;SDS011;41612;51.994;5.880;2023-03-13T00:11:15;32.25;;;6.90;;
55710;SDS011;41612;51.994;5.880;2023-03-13T00:13:41;27.92;;;6.72;;
55710;SDS011;41612;51.994;5.880;2023-03-13T00:16:08;20.98;;;5.22;;
55710;SDS011;41612;51.994;5.880;2023-03-13T00:18:35;23.50;;;5.40;;
55710;SDS011;41612;51.994;5.880;2023-03-13T00:21:02;20.75;;;6.57;;
55710;SDS011;41612;51.994;5.880;2023-03-13T00:23:29;28.20;;;7.03;;
55710;SDS011;41612;51.994;5.880;2023-03-13T00:25:57;25.55;;;5.05;;
55710;SDS011;41612;51.994;5.880;2023-03-13T00:28:28;19.48;;;4.82;;
55710;SDS011;41612;51.994;5.880;2023-03-13T00:31:06;27.13;;;6.05;;
55710;SDS011;41612;51.994;5.880;2023-03-13T00:33:35;21.42;;;5.40;;
55710;SDS011;41612;51.994;5.880;2023-03-13T00:36:04;18.83;;;4.40;;
55710;SDS011;41612;51.994;5.880;2023-03-13T00:38:32;28.83;;;7.05;;
55710;SDS011;41612;51.994;5.880;2023-03-13T00:41:02;28.50;;;5.95;;
55710;SDS011;41612;51.994;5.880;2023-03-13T00:43:29;23.38;;;4.90;;
55710;SDS011;41612;51.994;5.880;2023-03-13T00:45:56;23.55;;;4.25;;
55710;SDS011;41612;51.994;5.880;2023-03-13T00:48:22;18.83;;;5.60;;
55710;SDS011;41612;51.994;5.880;2023-03-13T00:50:48;27.50;;;6.10;;
55710;SDS011;41612;51.994;5.880;2023-03-13T00:53:14;23.85;;;4.90;;
55710;SDS011;41612;51.994;5.880;2023-03-13T00:55:50;16.35;;;4.55;;
55710;SDS011;41612;51.994;5.880;2023-03-13T00:58:17;26.15;;;5.78;;
55710;SDS011;41612;51.994;5.880;2023-03-13T01:00:43;35.00;;;5.70;;
55710;SDS011;41612;51.994;5.880;2023-03-13T01:03:09;25.77;;;5.45;;
55710;SDS011;41612;51.994;5.880;2023-03-13T01:05:34;24.63;;;5.32;;
55710;SDS011;41612;51.994;5.880;2023-03-13T01:08:00;21.90;;;4.95;;
55710;SDS011;41612;51.994;5.880;2023-03-13T01:10:25;28.33;;;6.65;;
55710;SDS011;41612;51.994;5.880;2023-03-13T01:12:51;30.27;;;6.03;;
55710;SDS011;41612;51.994;5.880;2023-03-13T01:15:17;21.30;;;4.60;;
55710;SDS011;41612;51.994;5.880;2023-03-13T01:17:44;29.52;;;6.72;;
55710;SDS011;41612;51.994;5.880;2023-03-13T01:20:11;25.98;;;5.68;;
55710;SDS011;41612;51.994;5.880;2023-03-13T01:22:37;22.45;;;7.30;;
55710;SDS011;41612;51.994;5.880;2023-03-13T01:25:03;25.20;;;6.35;;
55710;SDS011;41612;51.994;5.880;2023-03-13T01:27:29;21.45;;;4.85;;
55710;SDS011;41612;51.994;5.880;2023-03-13T01:29:55;22.50;;;5.93;;
55710;SDS011;41612;51.994;5.880;2023-03-13T01:32:20;25.48;;;7.30;;
55710;SDS011;41612;51.994;5.880;2023-03-13T01:34:46;27.63;;;6.85;;
55710;SDS011;41612;51.994;5.880;2023-03-13T01:37:12;22.23;;;6.80;;
55710;SDS011;41612;51.994;5.880;2023-03-13T01:39:37;23.10;;;5.43;;
55710;SDS011;41612;51.994;5.880;2023-03-13T01:42:03;19.73;;;7.07;;
55710;SDS011;41612;51.994;5.880;2023-03-13T01:44:47;29.00;;;7.55;;
55710;SDS011;41612;51.994;5.880;2023-03-13T01:47:14;21.73;;;5.30;;
55710;SDS011;41612;51.994;5.880;2023-03-13T01:49:58;25.55;;;6.10;;
55710;SDS011;41612;51.994;5.880;2023-03-13T01:52:35;20.83;;;6.10;;
55710;SDS011;41612;51.994;5.880;2023-03-13T01:55:08;14.85;;;4.38;;
55710;SDS011;41612;51.994;5.880;2023-03-13T01:57:42;18.40;;;5.88;;
55710;SDS011;41612;51.994;5.880;2023-03-13T02:00:12;18.90;;;5.80;;
55710;SDS011;41612;51.994;5.880;2023-03-13T02:02:43;18.70;;;5.28;;
55710;SDS011;41612;51.994;5.880;2023-03-13T02:05:12;13.82;;;5.45;;
55710;SDS011;41612;51.994;5.880;2023-03-13T02:08:23;14.43;;;7.57;;
55710;SDS011;41612;51.994;5.880;2023-03-13T02:11:11;19.75;;;5.63;;
55710;SDS011;41612;51.994;5.880;2023-03-13T02:13:39;21.55;;;7.32;;
55710;SDS011;41612;51.994;5.880;2023-03-13T02:16:05;14.85;;;5.15;;
55710;SDS011;41612;51.994;5.880;2023-03-13T02:18:31;15.30;;;4.70;;
55710;SDS011;41612;51.994;5.880;2023-03-13T02:21:00;24.50;;;7.15;;
55710;SDS011;41612;51.994;5.880;2023-03-13T02:23:48;21.15;;;6.93;;
55710;SDS011;41612;51.994;5.880;2023-03-13T02:26:22;20.10;;;5.20;;
55710;SDS011;41612;51.994;5.880;2023-03-13T02:28:48;19.80;;;6.18;;
55710;SDS011;41612;51.994;5.880;2023-03-13T02:31:17;14.70;;;5.55;;
55710;SDS011;41612;51.994;5.880;2023-03-13T02:33:42;16.02;;;6.07;;
55710;SDS011;41612;51.994;5.880;2023-03-13T02:36:11;16.15;;;7.35;;
55710;SDS011;41612;51.994;5.880;2023-03-13T02:38:41;19.02;;;6.30;;
55710;SDS011;41612;51.994;5.880;2023-03-13T02:41:12;16.85;;;7.20;;
55710;SDS011;41612;51.994;5.880;2023-03-13T02:43:38;22.08;;;7.88;;
55710;SDS011;41612;51.994;5.880;2023-03-13T02:46:09;15.00;;;6.85;;
55710;SDS011;41612;51.994;5.880;2023-03-13T02:48:44;19.52;;;8.07;;
55710;SDS011;41612;51.994;5.880;2023-03-13T02:51:32;23.10;;;9.02;;
55710;SDS011;41612;51.994;5.880;2023-03-13T02:54:04;14.38;;;9.07;;
55710;SDS011;41612;51.994;5.880;2023-03-13T02:56:33;14.52;;;8.77;;
55710;SDS011;41612;51.994;5.880;2023-03-13T02:59:02;16.55;;;9.02;;
55710;SDS011;41612;51.994;5.880;2023-03-13T03:01:29;17.17;;;8.10;;
55710;SDS011;41612;51.994;5.880;2023-03-13T03:03:55;24.08;;;9.15;;
55710;SDS011;41612;51.994;5.880;2023-03-13T03:06:20;16.63;;;8.07;;
55710;SDS011;41612;51.994;5.880;2023-03-13T03:08:47;19.30;;;9.38;;
55710;SDS011;41612;51.994;5.880;2023-03-13T03:11:12;14.13;;;7.53;;
55710;SDS011;41612;51.994;5.880;2023-03-13T03:13:40;16.58;;;8.02;;
55710;SDS011;41612;51.994;5.880;2023-03-13T03:16:07;14.27;;;6.35;;
55710;SDS011;41612;51.994;5.880;2023-03-13T03:18:34;16.05;;;7.40;;
55710;SDS011;41612;51.994;5.880;2023-03-13T03:21:02;14.25;;;7.30;;
55710;SDS011;41612;51.994;5.880;2023-03-13T03:23:34;12.98;;;6.35;;
55710;SDS011;41612;51.994;5.880;2023-03-13T03:26:01;17.75;;;8.57;;
55710;SDS011;41612;51.994;5.880;2023-03-13T03:28:30;21.08;;;8.30;;
55710;SDS011;41612;51.994;5.880;2023-03-13T03:31:02;11.40;;;6.45;;
55710;SDS011;41612;51.994;5.880;2023-03-13T03:33:34;13.40;;;6.75;;
55710;SDS011;41612;51.994;5.880;2023-03-13T03:36:05;14.73;;;6.28;;
55710;SDS011;41612;51.994;5.880;2023-03-13T03:38:33;12.55;;;6.32;;
55710;SDS011;41612;51.994;5.880;2023-03-13T03:40:59;16.85;;;8.02;;
55710;SDS011;41612;51.994;5.880;2023-03-13T03:43:25;11.48;;;6.93;;
55710;SDS011;41612;51.994;5.880;2023-03-13T03:45:51;23.02;;;9.73;;
55710;SDS011;41612;51.994;5.880;2023-03-13T03:48:17;14.65;;;7.35;;
55710;SDS011;41612;51.994;5.880;2023-03-13T03:50:43;11.13;;;6.38;;
55710;SDS011;41612;51.994;5.880;2023-03-13T03:53:09;19.60;;;7.88;;
55710;SDS011;41612;51.994;5.880;2023-03-13T03:55:34;13.63;;;8.00;;
55710;SDS011;41612;51.994;5.880;2023-03-13T03:58:00;11.23;;;7.45;;
55710;SDS011;41612;51.994;5.880;2023-03-13T04:00:46;15.00;;;6.67;;
55710;SDS011;41612;51.994;5.880;2023-03-13T04:03:13;10.82;;;5.65;;
55710;SDS011;41612;51.994;5.880;2023-03-13T04:05:39;13.07;;;7.10;;
55710;SDS011;41612;51.994;5.880;2023-03-13T04:08:06;11.50;;;5.78;;
55710;SDS011;41612;51.994;5.880;2023-03-13T04:10:32;12.25;;;7.70;;
55710;SDS011;41612;51.994;5.880;2023-03-13T04:12:58;9.05;;;6.10;;
55710;SDS011;41612;51.994;5.880;2023-03-13T04:15:23;14.52;;;7.43;;
55710;SDS011;41612;51.994;5.880;2023-03-13T04:17:49;13.40;;;7.93;;
55710;SDS011;41612;51.994;5.880;2023-03-13T04:20:17;11.88;;;7.93;;
55710;SDS011;41612;51.994;5.880;2023-03-13T04:22:43;8.18;;;5.25;;
55710;SDS011;41612;51.994;5.880;2023-03-13T04:25:09;9.02;;;6.45;;
55710;SDS011;41612;51.994;5.880;2023-03-13T04:27:35;13.40;;;9.35;;
55710;SDS011;41612;51.994;5.880;2023-03-13T04:30:02;12.52;;;7.00;;
55710;SDS011;41612;51.994;5.880;2023-03-13T04:33:04;14.88;;;7.95;;
55710;SDS011;41612;51.994;5.880;2023-03-13T04:35:50;13.27;;;8.52;;
55710;SDS011;41612;51.994;5.880;2023-03-13T04:38:36;10.73;;;7.90;;
55710;SDS011;41612;51.994;5.880;2023-03-13T04:41:20;13.68;;;8.57;;
55710;SDS011;41612;51.994;5.880;2023-03-13T04:44:09;12.93;;;8.20;;
55710;SDS011;41612;51.994;5.880;2023-03-13T04:46:42;10.88;;;7.90;;
55710;SDS011;41612;51.994;5.880;2023-03-13T04:49:29;12.07;;;9.38;;
55710;SDS011;41612;51.994;5.880;2023-03-13T04:52:07;14.02;;;8.88;;
55710;SDS011;41612;51.994;5.880;2023-03-13T04:54:59;10.60;;;6.53;;
55710;SDS011;41612;51.994;5.880;2023-03-13T04:57:42;14.77;;;9.30;;
55710;SDS011;41612;51.994;5.880;2023-03-13T05:00:27;10.30;;;6.28;;
55710;SDS011;41612;51.994;5.880;2023-03-13T05:03:22;12.52;;;8.43;;
55710;SDS011;41612;51.994;5.880;2023-03-13T05:05:55;15.23;;;8.27;;
55710;SDS011;41612;51.994;5.880;2023-03-13T05:08:53;14.10;;;9.13;;
55710;SDS011;41612;51.994;5.880;2023-03-13T05:11:27;12.50;;;8.73;;
55710;SDS011;41612;51.994;5.880;2023-03-13T05:13:53;14.85;;;8.25;;
55710;SDS011;41612;51.994;5.880;2023-03-13T05:16:48;13.93;;;9.75;;
55710;SDS011;41612;51.994;5.880;2023-03-13T05:19:46;11.68;;;7.78;;
55710;SDS011;41612;51.994;5.880;2023-03-13T05:22:21;12.00;;;8.57;;
55710;SDS011;41612;51.994;5.880;2023-03-13T05:25:05;14.32;;;8.25;;
55710;SDS011;41612;51.994;5.880;2023-03-13T05:27:54;12.75;;;8.23;;
55710;SDS011;41612;51.994;5.880;2023-03-13T05:30:38;13.50;;;8.90;;
55710;SDS011;41612;51.994;5.880;2023-03-13T05:33:11;12.93;;;6.43;;
55710;SDS011;41612;51.994;5.880;2023-03-13T05:35:44;16.05;;;7.90;;
55710;SDS011;41612;51.994;5.880;2023-03-13T05:38:36;16.67;;;7.43;;
55710;SDS011;41612;51.994;5.880;2023-03-13T05:41:21;12.23;;;8.02;;
55710;SDS011;41612;51.994;5.880;2023-03-13T05:44:14;9.65;;;6.85;;
55710;SDS011;41612;51.994;5.880;2023-03-13T05:47:15;13.88;;;7.95;;
55710;SDS011;41612;51.994;5.880;2023-03-13T05:50:01;10.57;;;7.57;;
55710;SDS011;41612;51.994;5.880;2023-03-13T05:52:32;9.25;;;6.20;;
55710;SDS011;41612;51.994;5.880;2023-03-13T05:55:09;10.15;;;7.10;;
55710;SDS011;41612;51.994;5.880;2023-03-13T05:57:53;13.13;;;6.78;;
55710;SDS011;41612;51.994;5.880;2023-03-13T06:00:27;12.07;;;7.50;;
55710;SDS011;41612;51.994;5.880;2023-03-13T06:03:13;11.10;;;6.20;;
55710;SDS011;41612;51.994;5.880;2023-03-13T06:05:40;10.55;;;6.50;;
55710;SDS011;41612;51.994;5.880;2023-03-13T06:08:20;10.27;;;7.38;;
55710;SDS011;41612;51.994;5.880;2023-03-13T06:10:45;15.93;;;9.10;;
55710;SDS011;41612;51.994;5.880;2023-03-13T06:13:11;13.88;;;7.70;;
55710;SDS011;41612;51.994;5.880;2023-03-13T06:15:37;9.98;;;6.15;;
55710;SDS011;41612;51.994;5.880;2023-03-13T06:18:11;11.10;;;5.90;;
55710;SDS011;41612;51.994;5.880;2023-03-13T06:20:37;13.82;;;6.68;;
55710;SDS011;41612;51.994;5.880;2023-03-13T06:23:02;11.77;;;5.82;;
55710;SDS011;41612;51.994;5.880;2023-03-13T06:25:28;8.35;;;5.20;;
55710;SDS011;41612;51.994;5.880;2023-03-13T06:27:54;14.13;;;6.70;;
55710;SDS011;41612;51.994;5.880;2023-03-13T06:30:19;11.68;;;6.70;;
55710;SDS011;41612;51.994;5.880;2023-03-13T06:32:45;9.75;;;6.20;;
55710;SDS011;41612;51.994;5.880;2023-03-13T06:35:11;10.48;;;6.50;;
55710;SDS011;41612;51.994;5.880;2023-03-13T06:37:36;8.45;;;5.57;;
55710;SDS011;41612;51.994;5.880;2023-03-13T06:40:03;10.52;;;5.40;;
55710;SDS011;41612;51.994;5.880;2023-03-13T06:42:30;10.57;;;4.78;;
55710;SDS011;41612;51.994;5.880;2023-03-13T06:44:56;12.27;;;5.70;;
55710;SDS011;41612;51.994;5.880;2023-03-13T06:47:21;13.50;;;5.53;;
55710;SDS011;41612;51.994;5.880;2023-03-13T06:49:47;11.80;;;5.03;;
55710;SDS011;41612;51.994;5.880;2023-03-13T06:52:14;13.05;;;5.53;;
55710;SDS011;41612;51.994;5.880;2023-03-13T06:54:40;9.10;;;4.53;;
55710;SDS011;41612;51.994;5.880;2023-03-13T06:57:06;11.80;;;5.10;;
55710;SDS011;41612;51.994;5.880;2023-03-13T06:59:32;8.85;;;4.82;;
55710;SDS011;41612;51.994;5.880;2023-03-13T07:01:58;11.05;;;5.18;;
55710;SDS011;41612;51.994;5.880;2023-03-13T07:04:23;10.25;;;4.78;;
55710;SDS011;41612;51.994;5.880;2023-03-13T07:06:49;14.90;;;5.43;;
55710;SDS011;41612;51.994;5.880;2023-03-13T07:09:16;11.38;;;4.45;;
55710;SDS011;41612;51.994;5.880;2023-03-13T07:11:44;9.75;;;4.72;;
55710;SDS011;41612;51.994;5.880;2023-03-13T07:14:10;6.50;;;4.15;;
55710;SDS011;41612;51.994;5.880;2023-03-13T07:16:35;8.48;;;4.47;;
55710;SDS011;41612;51.994;5.880;2023-03-13T07:19:01;6.97;;;3.58;;
55710;SDS011;41612;51.994;5.880;2023-03-13T07:21:27;14.52;;;5.82;;
55710;SDS011;41612;51.994;5.880;2023-03-13T07:23:52;7.35;;;4.03;;
55710;SDS011;41612;51.994;5.880;2023-03-13T07:26:19;9.70;;;5.53;;
55710;SDS011;41612;51.994;5.880;2023-03-13T07:28:45;6.70;;;3.53;;
55710;SDS011;41612;51.994;5.880;2023-03-13T07:31:15;11.90;;;4.28;;
55710;SDS011;41612;51.994;5.880;2023-03-13T07:33:42;10.80;;;4.28;;
55710;SDS011;41612;51.994;5.880;2023-03-13T07:36:09;6.60;;;4.30;;
55710;SDS011;41612;51.994;5.880;2023-03-13T07:38:39;9.98;;;3.90;;
55710;SDS011;41612;51.994;5.880;2023-03-13T07:41:05;10.18;;;3.50;;
55710;SDS011;41612;51.994;5.880;2023-03-13T07:43:31;9.52;;;3.50;;
55710;SDS011;41612;51.994;5.880;2023-03-13T07:45:58;12.32;;;4.57;;
55710;SDS011;41612;51.994;5.880;2023-03-13T07:48:29;11.27;;;4.20;;
55710;SDS011;41612;51.994;5.880;2023-03-13T07:50:57;14.32;;;4.57;;
55710;SDS011;41612;51.994;5.880;2023-03-13T07:53:24;9.75;;;3.78;;
55710;SDS011;41612;51.994;5.880;2023-03-13T07:55:50;10.32;;;3.58;;
55710;SDS011;41612;51.994;5.880;2023-03-13T07:58:24;11.40;;;4.60;;
55710;SDS011;41612;51.994;5.880;2023-03-13T08:00:51;10.80;;;3.78;;
55710;SDS011;41612;51.994;5.880;2023-03-13T08:03:17;11.43;;;3.33;;
55710;SDS011;41612;51.994;5.880;2023-03-13T08:05:43;7.68;;;3.35;;
55710;SDS011;41612;51.994;5.880;2023-03-13T08:08:09;9.93;;;3.75;;
55710;SDS011;41612;51.994;5.880;2023-03-13T08:10:34;9.60;;;3.58;;
55710;SDS011;41612;51.994;5.880;2023-03-13T08:13:00;7.00;;;3.03;;
55710;SDS011;41612;51.994;5.880;2023-03-13T08:15:26;12.75;;;3.97;;
55710;SDS011;41612;51.994;5.880;2023-03-13T08:17:53;8.52;;;3.53;;
55710;SDS011;41612;51.994;5.880;2023-03-13T08:20:19;9.95;;;3.80;;
55710;SDS011;41612;51.994;5.880;2023-03-13T08:22:45;9.75;;;4.15;;
55710;SDS011;41612;51.994;5.880;2023-03-13T08:25:13;8.30;;;3.22;;
55710;SDS011;41612;51.994;5.880;2023-03-13T08:27:39;9.77;;;4.50;;
55710;SDS011;41612;51.994;5.880;2023-03-13T08:30:05;10.73;;;4.05;;
55710;SDS011;41612;51.994;5.880;2023-03-13T08:32:32;5.97;;;3.28;;
55710;SDS011;41612;51.994;5.880;2023-03-13T08:34:58;7.10;;;2.97;;
55710;SDS011;41612;51.994;5.880;2023-03-13T08:37:24;10.15;;;3.22;;
55710;SDS011;41612;51.994;5.880;2023-03-13T08:39:50;7.78;;;3.00;;
55710;SDS011;41612;51.994;5.880;2023-03-13T08:42:15;8.25;;;3.33;;
55710;SDS011;41612;51.994;5.880;2023-03-13T08:44:41;8.45;;;3.15;;
55710;SDS011;41612;51.994;5.880;2023-03-13T08:47:07;8.15;;;3.67;;
55710;SDS011;41612;51.994;5.880;2023-03-13T08:49:33;7.72;;;3.22;;
55710;SDS011;41612;51.994;5.880;2023-03-13T08:51:59;6.78;;;3.15;;
55710;SDS011;41612;51.994;5.880;2023-03-13T08:54:25;8.55;;;3.72;;
55710;SDS011;41612;51.994;5.880;2023-03-13T08:56:51;7.85;;;3.50;;
55710;SDS011;41612;51.994;5.880;2023-03-13T08:59:16;7.38;;;3.38;;
55710;SDS011;41612;51.994;5.880;2023-03-13T09:01:42;12.90;;;4.75;;
55710;SDS011;41612;51.994;5.880;2023-03-13T09:04:08;9.25;;;3.85;;
55710;SDS011;41612;51.994;5.880;2023-03-13T09:06:34;7.93;;;4.03;;
55710;SDS011;41612;51.994;5.880;2023-03-13T09:09:02;10.65;;;3.65;;
55710;SDS011;41612;51.994;5.880;2023-03-13T09:11:29;9.27;;;3.72;;
55710;SDS011;41612;51.994;5.880;2023-03-13T09:13:55;9.13;;;3.03;;
55710;SDS011;41612;51.994;5.880;2023-03-13T09:16:24;18.25;;;3.42;;
55710;SDS011;41612;51.994;5.880;2023-03-13T09:18:51;8.95;;;2.90;;
55710;SDS011;41612;51.994;5.880;2023-03-13T09:21:25;8.45;;;2.60;;
55710;SDS011;41612;51.994;5.880;2023-03-13T09:23:55;8.07;;;2.47;;
55710;SDS011;41612;51.994;5.880;2023-03-13T09:26:22;9.50;;;3.33;;
55710;SDS011;41612;51.994;5.880;2023-03-13T09:28:48;7.90;;;3.03;;
55710;SDS011;41612;51.994;5.880;2023-03-13T09:31:21;6.45;;;2.33;;
55710;SDS011;41612;51.994;5.880;2023-03-13T09:33:49;6.78;;;2.90;;
55710;SDS011;41612;51.994;5.880;2023-03-13T09:36:15;5.13;;;1.95;;
55710;SDS011;41612;51.994;5.880;2023-03-13T09:38:42;9.13;;;2.83;;
55710;SDS011;41612;51.994;5.880;2023-03-13T09:41:19;6.25;;;2.05;;
55710;SDS011;41612;51.994;5.880;2023-03-13T09:54:45;4.22;;;2.10;;
55710;SDS011;41612;51.994;5.880;2023-03-13T09:57:15;6.65;;;2.33;;
55710;SDS011;41612;51.994;5.880;2023-03-13T09:59:55;9.80;;;2.70;;
55710;SDS011;41612;51.994;5.880;2023-03-13T10:07:34;6.00;;;2.83;;
55710;SDS011;41612;51.994;5.880;2023-03-13T10:10:01;6.00;;;2.17;;
55710;SDS011;41612;51.994;5.880;2023-03-13T10:12:28;6.22;;;2.35;;
55710;SDS011;41612;51.994;5.880;2023-03-13T10:15:17;9.05;;;2.63;;
55710;SDS011;41612;51.994;5.880;2023-03-13T10:18:14;6.40;;;1.98;;
55710;SDS011;41612;51.994;5.880;2023-03-13T10:20:46;6.63;;;2.40;;
55710;SDS011;41612;51.994;5.880;2023-03-13T10:23:24;5.60;;;2.47;;
55710;SDS011;41612;51.994;5.880;2023-03-13T10:26:04;5.82;;;1.85;;
55710;SDS011;41612;51.994;5.880;2023-03-13T10:28:33;8.50;;;2.13;;
55710;SDS011;41612;51.994;5.880;2023-03-13T10:31:05;5.60;;;1.85;;
55710;SDS011;41612;51.994;5.880;2023-03-13T10:33:43;6.05;;;2.00;;
55710;SDS011;41612;51.994;5.880;2023-03-13T10:36:10;7.82;;;1.88;;
55710;SDS011;41612;51.994;5.880;2023-03-13T10:38:50;8.85;;;2.25;;
55710;SDS011;41612;51.994;5.880;2023-03-13T10:41:18;4.53;;;1.88;;
55710;SDS011;41612;51.994;5.880;2023-03-13T10:43:53;3.63;;;2.05;;
55710;SDS011;41612;51.994;5.880;2023-03-13T10:46:23;7.75;;;2.30;;
55710;SDS011;41612;51.994;5.880;2023-03-13T10:48:59;4.90;;;1.92;;
55710;SDS011;41612;51.994;5.880;2023-03-13T10:51:33;7.28;;;2.28;;
55710;SDS011;41612;51.994;5.880;2023-03-13T10:54:11;3.70;;;1.80;;
55710;SDS011;41612;51.994;5.880;2023-03-13T10:56:38;7.53;;;1.90;;
55710;SDS011;41612;51.994;5.880;2023-03-13T10:59:04;5.85;;;2.38;;
55710;SDS011;41612;51.994;5.880;2023-03-13T11:01:50;4.53;;;1.88;;
55710;SDS011;41612;51.994;5.880;2023-03-13T11:04:20;9.20;;;2.22;;
55710;SDS011;41612;51.994;5.880;2023-03-13T11:06:54;4.40;;;2.00;;
55710;SDS011;41612;51.994;5.880;2023-03-13T11:09:25;3.53;;;1.80;;
55710;SDS011;41612;51.994;5.880;2023-03-13T11:11:57;7.13;;;2.30;;
55710;SDS011;41612;51.994;5.880;2023-03-13T11:14:41;5.13;;;2.00;;
55710;SDS011;41612;51.994;5.880;2023-03-13T11:19:48;7.30;;;2.13;;
55710;SDS011;41612;51.994;5.880;2023-03-13T11:25:18;5.32;;;1.42;;
55710;SDS011;41612;51.994;5.880;2023-03-13T11:28:03;5.35;;;1.90;;
55710;SDS011;41612;51.994;5.880;2023-03-13T11:41:29;2.58;;;1.13;;
55710;SDS011;41612;51.994;5.880;2023-03-13T11:55:02;4.40;;;1.92;;
55710;SDS011;41612;51.994;5.880;2023-03-13T12:00:18;2.80;;;1.42;;
55710;SDS011;41612;51.994;5.880;2023-03-13T12:05:58;3.70;;;1.60;;
55710;SDS011;41612;51.994;5.880;2023-03-13T12:08:27;4.05;;;1.65;;
55710;SDS011;41612;51.994;5.880;2023-03-13T12:11:15;4.78;;;1.63;;
55710;SDS011;41612;51.994;5.880;2023-03-13T12:13:47;3.13;;;1.45;;
55710;SDS011;41612;51.994;5.880;2023-03-13T12:16:24;4.03;;;1.65;;
55710;SDS011;41612;51.994;5.880;2023-03-13T12:18:57;4.05;;;1.60;;
55710;SDS011;41612;51.994;5.880;2023-03-13T12:21:31;4.93;;;1.42;;
55710;SDS011;41612;51.994;5.880;2023-03-13T12:29:42;4.15;;;1.80;;
55710;SDS011;41612;51.994;5.880;2023-03-13T12:32:21;3.10;;;1.20;;
55710;SDS011;41612;51.994;5.880;2023-03-13T12:35:05;4.97;;;1.30;;
55710;SDS011;41612;51.994;5.880;2023-03-13T12:43:30;5.50;;;1.85;;
55710;SDS011;41612;51.994;5.880;2023-03-13T12:51:56;4.82;;;1.35;;
55710;SDS011;41612;51.994;5.880;2023-03-13T12:54:46;5.63;;;1.55;;
55710;SDS011;41612;51.994;5.880;2023-03-13T13:00:20;4.20;;;1.13;;
55710;SDS011;41612;51.994;5.880;2023-03-13T13:06:04;5.25;;;1.40;;
55710;SDS011;41612;51.994;5.880;2023-03-13T13:11:33;5.20;;;2.17;;
55710;SDS011;41612;51.994;5.880;2023-03-13T13:13:57;5.38;;;1.30;;
55710;SDS011;41612;51.994;5.880;2023-03-13T13:16:23;4.13;;;1.60;;
55710;SDS011;41612;51.994;5.880;2023-03-13T13:18:53;4.88;;;1.70;;
55710;SDS011;41612;51.994;5.880;2023-03-13T13:21:23;5.60;;;1.65;;
55710;SDS011;41612;51.994;5.880;2023-03-13T13:23:52;4.32;;;1.20;;
55710;SDS011;41612;51.994;5.880;2023-03-13T13:36:58;6.63;;;1.52;;
55710;SDS011;41612;51.994;5.880;2023-03-13T13:41:57;10.45;;;1.50;;
55710;SDS011;41612;51.994;5.880;2023-03-13T13:44:24;5.03;;;1.42;;
55710;SDS011;41612;51.994;5.880;2023-03-13T13:46:57;6.57;;;1.63;;
55710;SDS011;41612;51.994;5.880;2023-03-13T13:49:27;4.03;;;1.10;;
55710;SDS011;41612;51.994;5.880;2023-03-13T13:54:51;3.80;;;1.30;;
55710;SDS011;41612;51.994;5.880;2023-03-13T14:00:19;6.18;;;1.63;;
55710;SDS011;41612;51.994;5.880;2023-03-13T14:02:50;5.40;;;1.25;;
55710;SDS011;41612;51.994;5.880;2023-03-13T14:10:35;4.30;;;1.15;;
55710;SDS011;41612;51.994;5.880;2023-03-13T14:13:02;7.97;;;1.88;;
55710;SDS011;41612;51.994;5.880;2023-03-13T14:15:46;6.82;;;1.40;;
55710;SDS011;41612;51.994;5.880;2023-03-13T14:18:23;8.00;;;1.88;;
55710;SDS011;41612;51.994;5.880;2023-03-13T14:20:51;3.60;;;1.17;;
55710;SDS011;41612;51.994;5.880;2023-03-13T14:26:10;6.18;;;1.70;;
55710;SDS011;41612;51.994;5.880;2023-03-13T14:31:26;6.32;;;1.58;;
55710;SDS011;41612;51.994;5.880;2023-03-13T14:33:55;7.18;;;1.60;;
55710;SDS011;41612;51.994;5.880;2023-03-13T14:36:21;6.43;;;1.90;;
55710;SDS011;41612;51.994;5.880;2023-03-13T14:39:05;7.07;;;2.05;;
55710;SDS011;41612;51.994;5.880;2023-03-13T14:41:42;7.22;;;1.65;;
55710;SDS011;41612;51.994;5.880;2023-03-13T14:44:24;7.55;;;2.00;;
55710;SDS011;41612;51.994;5.880;2023-03-13T14:46:56;6.85;;;1.65;;
55710;SDS011;41612;51.994;5.880;2023-03-13T14:49:25;8.68;;;2.15;;
55710;SDS011;41612;51.994;5.880;2023-03-13T14:51:58;7.18;;;2.42;;
55710;SDS011;41612;51.994;5.880;2023-03-13T14:57:19;6.50;;;2.50;;
55710;SDS011;41612;51.994;5.880;2023-03-13T14:59:47;8.90;;;1.90;;
55710;SDS011;41612;51.994;5.880;2023-03-13T15:04:59;6.82;;;2.13;;
55710;SDS011;41612;51.994;5.880;2023-03-13T15:15:57;8.73;;;2.05;;
55710;SDS011;41612;51.994;5.880;2023-03-13T15:18:24;7.53;;;2.35;;
55710;SDS011;41612;51.994;5.880;2023-03-13T15:20:53;7.18;;;2.30;;
55710;SDS011;41612;51.994;5.880;2023-03-13T15:23:23;8.48;;;2.22;;
55710;SDS011;41612;51.994;5.880;2023-03-13T15:25:49;6.70;;;1.92;;
55710;SDS011;41612;51.994;5.880;2023-03-13T15:28:17;6.82;;;2.25;;
55710;SDS011;41612;51.994;5.880;2023-03-13T15:30:45;8.25;;;2.20;;
55710;SDS011;41612;51.994;5.880;2023-03-13T15:33:16;11.27;;;2.53;;
55710;SDS011;41612;51.994;5.880;2023-03-13T15:35:47;8.88;;;2.17;;
55710;SDS011;41612;51.994;5.880;2023-03-13T15:38:21;9.30;;;2.58;;
55710;SDS011;41612;51.994;5.880;2023-03-13T15:40:49;8.18;;;2.40;;
55710;SDS011;41612;51.994;5.880;2023-03-13T15:43:16;10.68;;;2.30;;
55710;SDS011;41612;51.994;5.880;2023-03-13T15:45:44;7.18;;;2.00;;
55710;SDS011;41612;51.994;5.880;2023-03-13T15:48:16;12.38;;;2.45;;
55710;SDS011;41612;51.994;5.880;2023-03-13T15:50:50;11.25;;;2.60;;
55710;SDS011;41612;51.994;5.880;2023-03-13T15:53:18;7.28;;;1.95;;
55710;SDS011;41612;51.994;5.880;2023-03-13T15:55:49;8.60;;;2.45;;
55710;SDS011;41612;51.994;5.880;2023-03-13T15:58:16;7.40;;;1.90;;
55710;SDS011;41612;51.994;5.880;2023-03-13T16:00:43;7.55;;;1.98;;
55710;SDS011;41612;51.994;5.880;2023-03-13T16:03:14;10.25;;;2.35;;
55710;SDS011;41612;51.994;5.880;2023-03-13T16:05:45;9.07;;;2.10;;
55710;SDS011;41612;51.994;5.880;2023-03-13T16:08:17;9.18;;;2.50;;
55710;SDS011;41612;51.994;5.880;2023-03-13T16:10:44;8.13;;;2.17;;
55710;SDS011;41612;51.994;5.880;2023-03-13T16:13:10;10.63;;;2.65;;
55710;SDS011;41612;51.994;5.880;2023-03-13T16:15:36;8.13;;;2.63;;
55710;SDS011;41612;51.994;5.880;2023-03-13T16:18:02;9.20;;;2.38;;
55710;SDS011;41612;51.994;5.880;2023-03-13T16:20:29;9.95;;;2.42;;
55710;SDS011;41612;51.994;5.880;2023-03-13T16:22:56;10.85;;;2.95;;
55710;SDS011;41612;51.994;5.880;2023-03-13T16:25:22;7.78;;;2.08;;
55710;SDS011;41612;51.994;5.880;2023-03-13T16:27:48;10.00;;;2.80;;
55710;SDS011;41612;51.994;5.880;2023-03-13T16:32:50;9.32;;;2.45;;
55710;SDS011;41612;51.994;5.880;2023-03-13T16:35:16;9.63;;;2.65;;
55710;SDS011;41612;51.994;5.880;2023-03-13T16:37:42;10.77;;;2.72;;
55710;SDS011;41612;51.994;5.880;2023-03-13T16:40:12;6.53;;;1.98;;
55710;SDS011;41612;51.994;5.880;2023-03-13T16:42:46;12.55;;;3.25;;
55710;SDS011;41612;51.994;5.880;2023-03-13T16:45:12;7.05;;;2.05;;
55710;SDS011;41612;51.994;5.880;2023-03-13T16:47:39;8.18;;;2.25;;
55710;SDS011;41612;51.994;5.880;2023-03-13T16:52:47;14.48;;;4.78;;
55710;SDS011;41612;51.994;5.880;2023-03-13T16:55:13;13.13;;;3.30;;
55710;SDS011;41612;51.994;5.880;2023-03-13T16:57:39;8.52;;;2.42;;
55710;SDS011;41612;51.994;5.880;2023-03-13T17:00:18;8.80;;;2.15;;
55710;SDS011;41612;51.994;5.880;2023-03-13T17:02:45;17.73;;;3.55;;
55710;SDS011;41612;51.994;5.880;2023-03-13T17:05:12;9.30;;;2.58;;
55710;SDS011;41612;51.994;5.880;2023-03-13T17:07:40;12.23;;;3.50;;
55710;SDS011;41612;51.994;5.880;2023-03-13T17:10:18;8.55;;;3.53;;